Latest Coastal Weather Observations for Learmonth

IDW60701

Issued at 4:13 am WST Monday 5 December 2016 (issued every 10 minutes, with the page automatically refreshed every 10 minutes)

About coastal observations | Map of coastal stations | Coastal observations for WA | Marine services | Other Formats
Station Details ID: 005007 Name: LEARMONTH AIRPORT Lat: -22.24 Lon: 114.10 Height: 5.0 m
Data from the previous 72 hours. | See also: Recent months at Learmonth
Date/Time
WST
Temp
°C
Wind Pressure Rain since
9am
mm
Weather Cloud Vis
km
Sea
Height
m
Swell
Dir  Spd
kts
Gust
kts
hPa Trend Height
m
Period
s
Dir
05/04:00am 19.3 SSW 14 18 1009.8 - 0.0 - - 10 - - - -
05/03:30am 19.5 SSW 15 19 1009.8 - 0.0 - - 10 - - - -
05/03:00am 19.8 SSW 15 19 1009.6 - 0.0 - - 10 - - - -
05/02:30am 19.9 SSW 15 21 1009.7 - 0.0 - - 10 - - - -
05/02:00am 20.1 SSW 14 19 1009.7 - 0.0 - - 10 - - - -
05/01:30am 20.4 SSW 14 20 1009.6 - 0.0 - - 10 - - - -
05/01:00am 20.7 SSW 13 19 1009.5 - 0.0 - - 10 - - - -
05/12:30am 20.9 SSW 12 15 1009.7 - 0.0 - - 10 - - - -
05/12:00am 21.4 SSW 14 20 1009.6 - 0.0 - - 10 - - - -
 
Date/Time
WST
Temp
°C
Wind Pressure Rain since
9am
mm
Weather Cloud Vis
km
Sea
Height
m
Swell
Dir  Spd
kts
Gust
kts
hPa Trend Height
m
Period
s
Dir
04/11:30pm 21.6 SW 15 19 1009.7 - 0.0 - - 10 - - - -
04/11:00pm 21.8 SW 16 20 1009.8 - 0.0 - - 10 - - - -
04/10:30pm 22.0 SW 14 18 1009.9 - 0.0 - - 10 - - - -
04/10:00pm 22.1 SW 14 20 1009.5 - 0.0 - - 10 - - - -
04/09:30pm 22.4 SW 14 19 1009.1 - 0.0 - - 10 - - - -
04/09:00pm 22.7 SW 14 18 1008.8 - 0.0 - - 10 - - - -
04/08:30pm 23.1 SW 15 18 1008.9 - 0.0 - - 10 - - - -
04/08:00pm 23.5 SW 14 17 1008.7 - 0.0 - - 10 - - - -
04/07:30pm 24.1 SW 17 24 1008.4 - 0.0 - - 10 - - - -
04/07:00pm 25.2 SW 15 22 1008.1 - 0.0 - - 10 - - - -
04/06:30pm 26.7 SW 18 23 1007.7 - 0.0 - - 10 - - - -
04/06:00pm 28.1 SW 18 23 1007.1 - 0.0 - - 10 - - - -
04/05:30pm 29.4 SW 18 24 1007.0 - 0.0 - - 10 - - - -
04/05:00pm 30.6 SW 17 23 1006.6 - 0.0 - - 10 - - - -
04/04:30pm 31.1 SW 18 24 1006.5 - 0.0 - - 10 - - - -
04/04:00pm 32.2 WSW 19 25 1006.3 - 0.0 - - 10 - - - -
04/03:51pm 32.7 SSW 16 25 1006.3 - 0.0 - - 10 - - - -
04/03:30pm 34.0 S 9 15 1006.5 - 0.0 - - 10 - - - -
04/03:00pm 33.3 E 6 9 1006.6 - 0.0 - - 10 - - - -
04/02:30pm 33.6 SSE 7 15 1007.1 - 0.0 - - 10 - - - -
04/02:00pm 31.4 ENE 5 10 1007.4 - 0.0 - - 10 - - - -
04/01:30pm 32.0 ENE 7 16 1007.7 - 0.0 - - 10 - - - -
04/01:00pm 32.2 NE 7 13 1007.6 - 0.0 - - 10 - - - -
04/12:30pm 32.3 ESE 11 17 1008.1 - 0.0 - - 10 - - - -
04/12:00pm 32.2 SE 10 16 1008.2 - 0.0 - - 10 - - - -
04/11:30am 32.5 SSE 9 14 1008.6 - 0.0 - - 10 - - - -
04/11:00am 30.1 SSE 7 10 1008.8 - 0.0 - - 10 - - - -
04/10:30am 29.3 S 10 16 1009.2 - 0.0 - - 10 - - - -
04/10:00am 28.1 SSE 11 15 1009.7 - 0.0 - - 10 - - - -
04/09:30am 26.8 S 12 16 1010.0 - 0.0 - - 10 - - - -
04/09:00am 25.7 S 12 18 1010.0 - 0.0 - - 10 - - - -
04/08:30am 24.0 S 14 17 1010.2 - 0.0 - - 10 - - - -
04/08:00am 23.0 S 15 19 1010.2 - 0.0 - - 10 - - - -
04/07:30am 21.7 SSW 16 21 1010.3 - 0.0 - - 10 - - - -
04/07:00am 20.4 S 15 20 1010.2 - 0.0 - - 10 - - - -
04/06:30am 19.0 SSW 14 19 1010.1 - 0.0 - - 10 - - - -
04/06:00am 17.5 SSW 11 15 1010.1 - 0.0 - - 10 - - - -
04/05:30am 17.2 SSW 11 16 1010.2 - 0.0 - - 10 - - - -
04/05:00am 17.2 SSW 12 15 1010.0 - 0.0 - - 10 - - - -
04/04:30am 17.7 SSW 13 17 1010.0 - 0.0 - - 10 - - - -
04/04:00am 17.6 SSW 8 10 1010.0 - 0.0 - - 10 - - - -
04/03:30am 18.2 SW 10 13 1009.7 - 0.0 - - 10 - - - -
04/03:00am 18.2 SW 10 13 1009.3 - 0.0 - - 10 - - - -
04/02:30am 18.1 SSW 11 14 1009.4 - 0.0 - - 10 - - - -
04/02:00am 18.6 SW 11 14 1009.3 - 0.0 - - 10 - - - -
04/01:30am 18.8 SSW 11 14 1009.3 - 0.0 - - 10 - - - -
04/01:00am 19.3 SW 12 16 1009.3 - 0.0 - - 10 - - - -
04/12:30am 19.6 SSW 12 16 1009.3 - 0.0 - - 10 - - - -
04/12:00am 20.2 SSW 14 18 1009.4 - 0.0 - - 10 - - - -
 
Date/Time
WST
Temp
°C
Wind Pressure Rain since
9am
mm
Weather Cloud Vis
km
Sea
Height
m
Swell
Dir  Spd
kts
Gust
kts
hPa Trend Height
m
Period
s
Dir
03/11:30pm 20.6 SSW 14 20 1009.6 - 0.0 - - 10 - - - -
03/11:00pm 21.0 SW 13 20 1010.4 - 0.0 - - 10 - - - -
03/10:30pm 21.2 SW 15 19 1010.3 - 0.0 - - 10 - - - -
03/10:00pm 21.4 SW 15 20 1010.1 - 0.0 - - 10 - - - -
03/09:30pm 21.5 SW 16 20 1009.8 - 0.0 - - 10 - - - -
03/09:00pm 21.8 SW 14 18 1009.6 - 0.0 - - 10 - - - -
03/08:30pm 22.2 SW 13 19 1009.5 - 0.0 - - 10 - - - -
03/08:00pm 22.6 SW 14 19 1009.1 - 0.0 - - 10 - - - -
03/07:30pm 23.3 SW 15 20 1008.8 - 0.0 - - 10 - - - -
03/07:00pm 24.2 SW 17 20 1008.5 - 0.0 - - 10 - - - -
03/06:30pm 25.8 SW 17 22 1008.1 - 0.0 - - 10 - - - -
03/06:00pm 27.4 SW 17 21 1007.7 - 0.0 - - 10 - - - -
03/05:30pm 28.7 SW 17 23 1007.4 - 0.0 - - 10 - - - -
03/05:00pm 30.2 SW 16 22 1007.1 - 0.0 - - 10 - - - -
03/04:30pm 30.2 SW 17 26 1007.0 - 0.0 - - 10 - - - -
03/04:00pm 30.7 WSW 16 23 1006.8 - 0.0 - - 10 - - - -
03/03:30pm 31.6 SW 17 23 1006.8 - 0.0 - - 10 - - - -
03/03:00pm 32.5 SW 17 22 1006.8 - 0.0 - - 10 - - - -
03/02:30pm 33.1 WSW 16 22 1007.0 - 0.0 - - 10 - - - -
03/02:00pm 33.2 SSW 12 17 1007.1 - 0.0 - - 10 - - - -
03/01:30pm 33.7 S 17 21 1007.4 - 0.0 - - 10 - - - -
03/01:00pm 32.6 SSW 9 15 1007.6 - 0.0 - - 10 - - - -
03/12:30pm 31.9 WSW 10 15 1008.0 - 0.0 - - 10 - - - -
03/12:00pm 31.0 W 8 16 1008.4 - 0.0 - - 10 - - - -
03/11:30am 30.8 WSW 8 13 1008.6 - 0.0 - - 10 - - - -
03/11:00am 30.6 SW 10 16 1008.7 - 0.0 - - 10 - - - -
03/10:30am 30.0 SSW 11 17 1009.1 - 0.0 - - 10 - - - -
03/10:00am 29.3 SSW 11 17 1009.4 - 0.0 - - 10 - - - -
03/09:30am 29.1 S 13 19 1009.4 - 0.0 - - 10 - - - -
03/09:00am 27.5 SSW 14 19 1009.2 - 0.0 - - 10 - - - -
03/08:30am 25.6 SSW 16 22 1009.2 - 0.0 - - 10 - - - -
03/08:00am 24.2 SSW 17 21 1009.2 - 0.0 - - 10 - - - -
03/07:30am 23.4 SSW 15 19 1009.2 - 0.0 - - 10 - - - -
03/07:00am 22.0 SSW 16 20 1009.1 - 0.0 - - 10 - - - -
03/06:30am 20.8 SSW 14 18 1009.0 - 0.0 - - 10 - - - -
03/06:00am 19.5 SW 10 14 1008.6 - 0.0 - - 10 - - - -
03/05:30am 18.9 SW 9 10 1008.6 - 0.0 - - 10 - - - -
03/05:00am 19.2 SW 7 10 1008.2 - 0.0 - - 10 - - - -
03/04:30am 19.6 SW 8 11 1008.1 - 0.0 - - 10 - - - -
03/04:00am 20.0 SW 11 13 1008.0 - 0.0 - - 10 - - - -
03/03:30am 20.0 SW 10 13 1007.7 - 0.0 - - 10 - - - -
03/03:00am 20.1 SW 11 13 1007.3 - 0.0 - - 10 - - - -
03/02:30am 20.5 SW 11 14 1007.5 - 0.0 - - 10 - - - -
03/02:00am 20.6 SW 11 16 1007.6 - 0.0 - - 10 - - - -
03/01:30am 20.8 SW 13 16 1007.5 - 0.0 - - 10 - - - -
03/01:00am 21.0 SW 13 17 1007.6 - 0.0 - - 10 - - - -
03/12:30am 21.2 SW 13 16 1007.8 - 0.0 - - 10 - - - -
03/12:00am 21.3 SW 12 16 1008.0 - 0.0 - - 10 - - - -
 
Date/Time
WST
Temp
°C
Wind Pressure Rain since
9am
mm
Weather Cloud Vis
km
Sea
Height
m
Swell
Dir  Spd
kts
Gust
kts
hPa Trend Height
m
Period
s
Dir
02/11:30pm 21.6 SW 13 17 1008.2 - 0.0 - - 10 - - - -
02/11:00pm 21.8 SW 13 17 1008.2 - 0.0 - - 10 - - - -
02/10:30pm 22.0 SW 15 19 1008.1 - 0.0 - - 10 - - - -
02/10:00pm 22.3 WSW 14 19 1007.9 - 0.0 - - 10 - - - -
02/09:30pm 22.6 SW 13 17 1007.8 - 0.0 - - 10 - - - -
02/09:00pm 22.7 WSW 13 17 1007.5 - 0.0 - - 10 - - - -
02/08:30pm 23.1 SW 15 19 1007.6 - 0.0 - - 10 - - - -
02/08:00pm 23.7 SW 15 19 1007.4 - 0.0 - - 10 - - - -
02/07:30pm 24.7 SW 13 19 1007.1 - 0.0 - - 10 - - - -
02/07:00pm 25.9 SW 16 20 1006.7 - 0.0 - - 10 - - - -
02/06:30pm 27.5 WSW 16 19 1006.2 - 0.0 - - 10 - - - -
02/06:00pm 29.2 SW 15 18 1005.8 - 0.0 - - 10 - - - -
02/05:30pm 30.2 WSW 16 21 1005.5 - 0.0 - - 10 - - - -
02/05:00pm 31.8 WSW 16 20 1005.4 - 0.0 - - 10 - - - -
02/04:30pm 32.5 WSW 17 23 1005.4 - 0.0 - - 10 - - - -
02/04:00pm 34.1 WSW 15 20 1005.5 - 0.0 - - 10 - - - -
02/03:30pm 33.9 W 16 23 1005.7 - 0.0 - - 10 - - - -
02/03:00pm 35.3 W 17 22 1005.7 - 0.0 - - 10 - - - -
02/02:30pm 34.6 W 18 23 1005.8 - 0.0 - - 10 - - - -
02/02:00pm 36.0 WSW 15 20 1005.9 - 0.0 - - 10 - - - -
02/01:30pm 36.0 WSW 10 16 1006.2 - 0.0 - - 10 - - - -
02/01:00pm 35.7 SW 12 18 1006.5 - 0.0 - - 10 - - - -
02/12:30pm 35.1 WSW 11 17 1006.8 - 0.0 - - 10 - - - -
02/12:00pm 34.8 SW 11 16 1007.0 - 0.0 - - 10 - - - -
02/11:30am 33.4 SW 12 17 1007.6 - 0.0 - - 10 - - - -
02/11:00am 32.1 SW 13 19 1007.9 - 0.0 - - 10 - - - -
02/10:30am 32.0 SW 11 18 1008.3 - 0.0 - - 10 - - - -
02/10:00am 30.2 SW 13 18 1008.6 - 0.0 - - 10 - - - -
02/09:30am 29.2 SW 14 20 1008.8 - 0.0 - - 10 - - - -
02/09:00am 28.0 SW 14 20 1008.7 - 0.0 - - 10 - - - -
02/08:30am 26.7 SW 15 19 1008.7 - 0.0 - - 10 - - - -
02/08:00am 24.9 SSW 15 20 1009.1 - 0.0 - - 10 - - - -
02/07:30am 23.7 SSW 17 23 1009.0 - 0.0 - - 10 - - - -
02/07:00am 22.0 SSW 18 24 1008.9 - 0.0 - - 10 - - - -
02/06:30am 21.0 SSW 15 19 1008.6 - 0.0 - - 10 - - - -
02/06:00am 20.1 SSW 12 16 1008.4 - 0.0 - - 10 - - - -
02/05:30am 19.7 SSW 11 15 1008.4 - 0.0 - - 10 - - - -
02/05:00am 19.8 SSW 13 17 1008.1 - 0.0 - - 10 - - - -
02/04:30am 20.1 SSW 13 17 1007.9 - 0.0 - - 10 - - - -

Other Formats:

Comma delimited format used in spreadsheet applications
http://www.bom.gov.au/fwo/IDW60701/IDW60701.94302.axf

JavaScript Object Notation format (JSON) in row-major order
http://www.bom.gov.au/fwo/IDW60701/IDW60701.94302.json